Time;durP1;ratioP1;P1;durP2;ratioP2;P2;SDS_P1;SDS_P2;PMS_P1;PMS_P2;Temp;Humidity;BMP_temperature;BMP_pressure;BME280_temperature;BME280_humidity;BME280_pressure;Samples;Min_cycle;Max_cycle;Signal;HPM_P1;HPM_P2
2022/06/25 00:02:17;;;;;;;1.77;1.20;;;;;;;;;;5093007;28;20466;-71
2022/06/25 00:07:30;;;;;;;1.97;1.03;;;;;;;;;;5092969;28;20923;-71
2022/06/25 00:09:57;;;;;;;2.10;1.50;;;;;;;;;;5094366;28;20943;-71
2022/06/25 00:12:34;;;;;;;3.10;1.57;;;;;;;;;;5096877;28;20470;-71
2022/06/25 00:15:02;;;;;;;2.57;1.40;;;;;;;;;;5096692;28;20971;-71
2022/06/25 00:17:29;;;;;;;1.77;1.30;;;;;;;;;;5096703;28;20446;-71
2022/06/25 00:19:56;;;;;;;1.70;1.20;;;;;;;;;;5096774;28;20490;-71
2022/06/25 00:22:23;;;;;;;1.57;1.43;;;;;;;;;;5096602;28;20868;-71
2022/06/25 00:24:52;;;;;;;2.47;1.03;;;;;;;;;;5096366;28;20473;-71
2022/06/25 00:27:19;;;;;;;4.30;1.10;;;;;;;;;;5096773;28;20556;-71
2022/06/25 00:29:46;;;;;;;4.80;1.30;;;;;;;;;;5096646;28;20447;-71
2022/06/25 00:32:13;;;;;;;1.67;1.23;;;;;;;;;;5096498;28;20847;-71
2022/06/25 00:34:40;;;;;;;1.90;1.30;;;;;;;;;;5096210;28;20457;-71
2022/06/25 00:37:08;;;;;;;1.50;1.03;;;;;;;;;;5096478;28;20458;-71
2022/06/25 00:39:35;;;;;;;1.93;1.30;;;;;;;;;;5096571;28;20505;-71
2022/06/25 00:42:09;;;;;;;2.70;1.40;;;;;;;;;;5096270;28;20470;-71
2022/06/25 00:44:36;;;;;;;1.53;1.20;;;;;;;;;;5096203;28;20943;-71
2022/06/25 00:47:03;;;;;;;2.67;1.27;;;;;;;;;;5096076;28;20515;-71
2022/06/25 00:49:30;;;;;;;1.87;1.50;;;;;;;;;;5096498;28;20458;-71
2022/06/25 00:51:58;;;;;;;1.50;1.20;;;;;;;;;;5095980;28;20501;-71
2022/06/25 00:54:26;;;;;;;1.50;1.20;;;;;;;;;;5095330;28;20450;-71
2022/06/25 00:56:53;;;;;;;5.30;1.20;;;;;;;;;;5096000;28;20457;-71
2022/06/25 00:59:25;;;;;;;2.20;1.23;;;;;;;;;;5095715;28;20489;-72
2022/06/25 01:01:52;;;;;;;1.80;1.40;;;;;;;;;;5095778;28;20466;-71
2022/06/25 01:04:19;;;;;;;1.63;1.30;;;;;;;;;;5095430;28;20451;-71
2022/06/25 01:06:46;;;;;;;3.87;1.20;;;;;;;;;;5095692;28;20466;-71
2022/06/25 01:09:13;;;;;;;3.57;1.40;;;;;;;;;;5095502;28;20458;-71
2022/06/25 01:11:41;;;;;;;2.13;1.53;;;;;;;;;;5095736;28;20467;-71
2022/06/25 01:14:09;;;;;;;2.80;1.60;;;;;;;;;;5095341;28;20450;-71
2022/06/25 01:16:37;;;;;;;2.17;1.30;;;;;;;;;;5095663;28;20447;-71
2022/06/25 01:19:08;;;;;;;2.40;1.63;;;;;;;;;;5095425;28;20458;-71
2022/06/25 01:21:36;;;;;;;1.63;1.40;;;;;;;;;;5095233;28;20963;-71
2022/06/25 01:24:06;;;;;;;2.07;1.47;;;;;;;;;;5095194;28;20467;-71
2022/06/25 01:26:34;;;;;;;1.80;1.57;;;;;;;;;;5095556;28;20493;-71
2022/06/25 01:29:02;;;;;;;1.67;1.30;;;;;;;;;;5095589;28;20496;-71
2022/06/25 01:31:29;;;;;;;2.27;1.40;;;;;;;;;;5095521;28;20478;-71
2022/06/25 01:33:56;;;;;;;4.00;1.60;;;;;;;;;;5095254;28;20447;-72
2022/06/25 01:36:23;;;;;;;1.90;1.47;;;;;;;;;;5095287;28;20439;-72
2022/06/25 01:38:50;;;;;;;3.37;1.50;;;;;;;;;;5095625;28;20465;-71
2022/06/25 01:41:19;;;;;;;2.20;1.80;;;;;;;;;;5094898;28;20490;-71
2022/06/25 01:43:46;;;;;;;5.50;1.40;;;;;;;;;;5094842;28;20466;-72
2022/06/25 01:46:14;;;;;;;3.57;1.40;;;;;;;;;;5095032;28;20458;-71
2022/06/25 01:48:41;;;;;;;3.40;1.30;;;;;;;;;;5095068;28;20455;-71
2022/06/25 01:51:08;;;;;;;1.67;1.43;;;;;;;;;;5094724;28;20463;-72
2022/06/25 01:53:36;;;;;;;1.90;1.30;;;;;;;;;;5094327;28;20935;-72
2022/06/25 01:56:03;;;;;;;1.60;1.37;;;;;;;;;;5094773;28;20450;-71
2022/06/25 01:58:32;;;;;;;2.30;1.50;;;;;;;;;;5094963;28;20940;-71
2022/06/25 02:00:59;;;;;;;1.67;1.50;;;;;;;;;;5094907;28;20494;-71
2022/06/25 02:03:26;;;;;;;1.80;1.60;;;;;;;;;;5094678;28;20447;-71
2022/06/25 02:06:00;;;;;;;2.20;1.40;;;;;;;;;;5094702;28;20453;-71
2022/06/25 02:08:28;;;;;;;2.13;1.53;;;;;;;;;;5094657;28;20542;-71
2022/06/25 02:10:56;;;;;;;1.80;1.20;;;;;;;;;;5094491;28;20471;-71
2022/06/25 02:13:23;;;;;;;2.17;1.50;;;;;;;;;;5094580;28;20442;-71
2022/06/25 02:15:51;;;;;;;2.33;1.53;;;;;;;;;;5094334;28;20955;-71
2022/06/25 02:18:18;;;;;;;1.80;1.43;;;;;;;;;;5094379;28;20920;-71
2022/06/25 02:20:46;;;;;;;2.00;1.27;;;;;;;;;;5094216;28;20513;-71
2022/06/25 02:23:14;;;;;;;1.87;1.67;;;;;;;;;;5094186;28;20458;-71
2022/06/25 02:25:41;;;;;;;2.63;1.53;;;;;;;;;;5094241;28;20932;-71
2022/06/25 02:28:08;;;;;;;2.33;1.47;;;;;;;;;;5094204;28;20450;-71
2022/06/25 02:30:35;;;;;;;6.60;3.77;;;;;;;;;;5094249;28;20940;-71
2022/06/25 02:33:04;;;;;;;5.47;3.00;;;;;;;;;;5093096;28;20443;-71
2022/06/25 02:35:31;;;;;;;2.23;1.50;;;;;;;;;;5093919;28;20447;-71
2022/06/25 02:37:58;;;;;;;1.70;1.50;;;;;;;;;;5094032;28;20457;-71
2022/06/25 02:40:25;;;;;;;2.00;1.60;;;;;;;;;;5093914;28;20498;-71
2022/06/25 02:42:52;;;;;;;1.70;1.40;;;;;;;;;;5094260;28;20821;-71
2022/06/25 02:45:19;;;;;;;2.20;1.60;;;;;;;;;;5093709;28;20454;-71
2022/06/25 02:47:47;;;;;;;1.90;1.70;;;;;;;;;;5093826;28;20463;-71
2022/06/25 02:50:15;;;;;;;1.70;1.47;;;;;;;;;;5093687;28;20826;-71
2022/06/25 02:52:42;;;;;;;2.07;1.87;;;;;;;;;;5093611;28;20454;-71
2022/06/25 02:55:10;;;;;;;4.00;2.80;;;;;;;;;;5093540;28;20457;-71
2022/06/25 03:00:22;;;;;;;3.70;1.43;;;;;;;;;;5093523;28;20566;-71
2022/06/25 03:02:49;;;;;;;2.43;1.80;;;;;;;;;;5093750;28;20454;-71
2022/06/25 03:05:18;;;;;;;2.00;1.43;;;;;;;;;;5093279;28;20466;-71
2022/06/25 03:07:45;;;;;;;3.83;1.40;;;;;;;;;;5093686;28;20936;-71
2022/06/25 03:10:13;;;;;;;3.17;1.60;;;;;;;;;;5093465;28;20462;-71
2022/06/25 03:12:40;;;;;;;2.93;1.50;;;;;;;;;;5093563;28;20473;-71
2022/06/25 03:15:07;;;;;;;3.67;2.60;;;;;;;;;;5093027;28;20456;-71
2022/06/25 03:17:34;;;;;;;3.43;3.07;;;;;;;;;;5093243;28;20516;-71
2022/06/25 03:20:02;;;;;;;2.33;2.13;;;;;;;;;;5093370;28;20493;-71
2022/06/25 03:22:30;;;;;;;3.53;1.70;;;;;;;;;;5093219;28;20489;-71
2022/06/25 03:24:57;;;;;;;1.97;1.50;;;;;;;;;;5093098;28;20468;-71
2022/06/25 03:27:24;;;;;;;2.13;1.30;;;;;;;;;;5093134;28;20912;-71
2022/06/25 03:29:51;;;;;;;1.77;1.60;;;;;;;;;;5093332;28;20455;-71
2022/06/25 03:32:19;;;;;;;2.53;1.70;;;;;;;;;;5093064;28;20470;-71
2022/06/25 03:34:46;;;;;;;2.30;1.40;;;;;;;;;;5093073;28;20447;-71
2022/06/25 03:37:13;;;;;;;2.27;1.80;;;;;;;;;;5093010;28;20455;-71
2022/06/25 03:39:41;;;;;;;2.03;1.53;;;;;;;;;;5093371;28;20446;-71
2022/06/25 03:42:08;;;;;;;7.60;5.27;;;;;;;;;;5092934;28;20491;-71
2022/06/25 03:44:35;;;;;;;5.00;3.63;;;;;;;;;;5092449;28;20823;-71
2022/06/25 03:47:04;;;;;;;5.03;2.13;;;;;;;;;;5093141;28;20457;-71
2022/06/25 03:49:31;;;;;;;7.10;2.53;;;;;;;;;;5093075;28;20828;-71
2022/06/25 03:51:58;;;;;;;1.83;1.47;;;;;;;;;;5092951;28;20467;-71
2022/06/25 03:54:25;;;;;;;3.40;1.90;;;;;;;;;;5092408;28;21058;-71
2022/06/25 03:56:53;;;;;;;2.60;2.03;;;;;;;;;;5093180;28;20932;-71
2022/06/25 03:59:21;;;;;;;2.17;1.70;;;;;;;;;;5092800;28;20454;-71
2022/06/25 04:01:48;;;;;;;5.03;3.20;;;;;;;;;;5093035;28;20494;-71
2022/06/25 04:04:15;;;;;;;5.23;3.57;;;;;;;;;;5092631;28;20451;-71
2022/06/25 04:06:43;;;;;;;2.60;1.83;;;;;;;;;;5093051;28;20469;-71
2022/06/25 04:09:10;;;;;;;3.00;1.40;;;;;;;;;;5092882;28;20450;-71
2022/06/25 04:11:37;;;;;;;2.10;1.50;;;;;;;;;;5092924;28;20469;-72
2022/06/25 04:14:06;;;;;;;3.27;1.60;;;;;;;;;;5092716;28;20924;-71
2022/06/25 04:16:34;;;;;;;3.80;1.40;;;;;;;;;;5092917;28;20451;-71
2022/06/25 04:19:01;;;;;;;2.30;1.60;;;;;;;;;;5092771;28;20455;-71
2022/06/25 04:21:28;;;;;;;3.00;1.83;;;;;;;;;;5092500;28;20490;-71
2022/06/25 04:23:55;;;;;;;5.10;2.70;;;;;;;;;;5092449;28;20850;-71
2022/06/25 04:26:22;;;;;;;5.77;4.10;;;;;;;;;;5092695;28;20453;-71
2022/06/25 04:29:04;;;;;;;2.63;1.70;;;;;;;;;;5092837;28;20826;-71
2022/06/25 04:31:32;;;;;;;2.20;1.90;;;;;;;;;;5092718;28;20454;-71
2022/06/25 04:34:00;;;;;;;4.33;3.27;;;;;;;;;;5092425;28;20457;-71
2022/06/25 04:36:27;;;;;;;3.43;1.90;;;;;;;;;;5092363;28;20455;-71
2022/06/25 04:38:54;;;;;;;1.70;1.40;;;;;;;;;;5092625;28;21030;-71
2022/06/25 04:41:21;;;;;;;2.43;1.30;;;;;;;;;;5092495;28;20501;-71
2022/06/25 04:43:49;;;;;;;2.20;1.33;;;;;;;;;;5092538;28;20469;-71
2022/06/25 04:46:16;;;;;;;2.53;1.77;;;;;;;;;;5092469;28;20451;-72
2022/06/25 04:48:44;;;;;;;13.77;2.40;;;;;;;;;;5092685;28;20948;-71
2022/06/25 04:51:11;;;;;;;6.47;1.80;;;;;;;;;;5092059;28;20988;-71
2022/06/25 04:53:55;;;;;;;3.70;2.13;;;;;;;;;;5092054;28;20451;-71
2022/06/25 04:56:22;;;;;;;4.90;3.40;;;;;;;;;;5092614;28;20541;-71
2022/06/25 04:58:49;;;;;;;4.67;2.10;;;;;;;;;;5094549;28;20503;-71
2022/06/25 05:01:17;;;;;;;7.93;1.50;;;;;;;;;;5095401;28;21002;-71
2022/06/25 05:03:45;;;;;;;1.80;1.43;;;;;;;;;;5095606;28;20529;-71
2022/06/25 05:06:13;;;;;;;2.90;1.40;;;;;;;;;;5095636;28;20462;-71
2022/06/25 05:08:40;;;;;;;1.83;1.47;;;;;;;;;;5095655;28;20463;-72
2022/06/25 05:11:07;;;;;;;1.70;1.40;;;;;;;;;;5094822;28;20847;-71
2022/06/25 05:13:33;;;;;;;1.80;1.40;;;;;;;;;;5095683;28;20457;-71
2022/06/25 05:16:01;;;;;;;3.17;2.37;;;;;;;;;;5095552;28;20447;-72
2022/06/25 05:18:28;;;;;;;3.20;1.70;;;;;;;;;;5095517;28;20959;-72
2022/06/25 05:20:56;;;;;;;2.77;1.50;;;;;;;;;;5095413;28;20494;-71
2022/06/25 05:23:23;;;;;;;4.53;1.20;;;;;;;;;;5095116;28;20455;-71
2022/06/25 05:25:50;;;;;;;3.63;1.80;;;;;;;;;;5095286;28;20461;-71
2022/06/25 05:28:17;;;;;;;3.23;1.63;;;;;;;;;;5095184;28;20451;-71
2022/06/25 05:30:45;;;;;;;1.93;1.20;;;;;;;;;;5095155;28;20474;-71
2022/06/25 05:33:12;;;;;;;1.83;1.20;;;;;;;;;;5095233;28;20469;-71
2022/06/25 05:35:39;;;;;;;2.70;1.20;;;;;;;;;;5095060;28;20457;-71
2022/06/25 05:38:10;;;;;;;1.73;1.13;;;;;;;;;;5095013;28;20940;-72
2022/06/25 05:40:37;;;;;;;2.00;1.40;;;;;;;;;;5095359;28;20837;-71
2022/06/25 05:43:04;;;;;;;5.03;1.40;;;;;;;;;;5095246;28;20446;-71
2022/06/25 05:45:31;;;;;;;2.33;1.30;;;;;;;;;;5094892;28;20808;-71
2022/06/25 05:47:59;;;;;;;2.70;1.50;;;;;;;;;;5095072;28;20466;-71
2022/06/25 05:50:26;;;;;;;1.70;1.10;;;;;;;;;;5094629;28;20462;-71
2022/06/25 05:52:54;;;;;;;2.60;1.30;;;;;;;;;;5094416;28;20547;-71
2022/06/25 05:55:23;;;;;;;1.87;1.20;;;;;;;;;;5094616;28;20466;-71
2022/06/25 05:57:50;;;;;;;2.60;1.67;;;;;;;;;;5094650;28;20447;-71
2022/06/25 06:00:18;;;;;;;1.90;1.20;;;;;;;;;;5094328;28;20473;-71
2022/06/25 06:02:45;;;;;;;3.00;1.30;;;;;;;;;;5088833;28;20576;-71
2022/06/25 06:05:12;;;;;;;2.67;1.57;;;;;;;;;;5093081;28;20952;-71
2022/06/25 06:07:39;;;;;;;3.40;1.40;;;;;;;;;;5093013;28;20451;-71
2022/06/25 06:10:07;;;;;;;1.90;1.40;;;;;;;;;;5092919;28;20463;-71
2022/06/25 06:12:36;;;;;;;1.60;1.30;;;;;;;;;;5093032;28;20510;-71
2022/06/25 06:15:03;;;;;;;2.30;1.60;;;;;;;;;;5092327;28;20462;-71
2022/06/25 06:17:30;;;;;;;3.60;1.10;;;;;;;;;;5093060;28;20458;-71
2022/06/25 06:19:57;;;;;;;2.03;1.37;;;;;;;;;;5092896;28;20451;-71
2022/06/25 06:22:24;;;;;;;1.77;1.07;;;;;;;;;;5092677;28;20490;-71
2022/06/25 06:24:52;;;;;;;5.43;1.30;;;;;;;;;;5092729;28;20990;-71
2022/06/25 06:27:19;;;;;;;2.00;1.20;;;;;;;;;;5092822;28;20457;-71
2022/06/25 06:29:47;;;;;;;1.63;1.53;;;;;;;;;;5092956;28;20450;-71
2022/06/25 06:32:14;;;;;;;3.00;1.27;;;;;;;;;;5092641;28;20474;-71
2022/06/25 06:34:42;;;;;;;4.17;1.40;;;;;;;;;;5092618;28;20458;-71
2022/06/25 06:37:09;;;;;;;4.07;1.20;;;;;;;;;;5092693;28;20932;-71
2022/06/25 06:39:36;;;;;;;2.23;1.37;;;;;;;;;;5093085;28;20495;-71
2022/06/25 06:42:04;;;;;;;3.10;1.63;;;;;;;;;;5092731;28;21006;-71
2022/06/25 06:44:31;;;;;;;3.10;1.50;;;;;;;;;;5092626;28;20455;-71
2022/06/25 06:46:59;;;;;;;2.20;1.20;;;;;;;;;;5092706;28;20459;-71
2022/06/25 06:49:26;;;;;;;3.30;2.00;;;;;;;;;;5092398;28;20455;-71
2022/06/25 06:51:54;;;;;;;3.87;1.27;;;;;;;;;;5092174;28;20470;-71
2022/06/25 06:54:21;;;;;;;1.60;1.27;;;;;;;;;;5091927;28;20932;-71
2022/06/25 06:56:48;;;;;;;5.50;1.97;;;;;;;;;;5092503;28;20538;-71
2022/06/25 06:59:15;;;;;;;2.57;2.37;;;;;;;;;;5092419;28;20462;-71
2022/06/25 07:01:42;;;;;;;6.93;1.80;;;;;;;;;;5092355;28;20494;-71
2022/06/25 07:04:11;;;;;;;2.10;1.50;;;;;;;;;;5092048;28;20450;-70
2022/06/25 07:06:38;;;;;;;1.50;1.17;;;;;;;;;;5092704;28;20450;-71
2022/06/25 07:09:05;;;;;;;1.50;1.20;;;;;;;;;;5092139;28;20461;-71
2022/06/25 07:11:32;;;;;;;1.67;1.40;;;;;;;;;;5092137;28;20843;-71
2022/06/25 07:14:00;;;;;;;1.80;1.30;;;;;;;;;;5091462;28;20455;-71
2022/06/25 07:16:27;;;;;;;3.53;1.20;;;;;;;;;;5092188;28;20901;-71
2022/06/25 07:18:55;;;;;;;2.43;1.60;;;;;;;;;;5091673;28;20454;-70
2022/06/25 07:21:24;;;;;;;3.40;1.40;;;;;;;;;;5091512;28;20486;-73
2022/06/25 07:23:51;;;;;;;2.43;1.03;;;;;;;;;;5091293;28;20462;-70
2022/06/25 07:26:18;;;;;;;3.20;1.40;;;;;;;;;;5091900;28;20451;-71
2022/06/25 07:28:46;;;;;;;4.70;1.47;;;;;;;;;;5091941;28;20447;-71
2022/06/25 07:31:13;;;;;;;1.50;1.10;;;;;;;;;;5091996;28;20989;-72
2022/06/25 07:33:40;;;;;;;2.00;1.73;;;;;;;;;;5091808;28;20446;-71
2022/06/25 07:36:08;;;;;;;5.10;1.60;;;;;;;;;;5091761;28;20473;-71
2022/06/25 07:38:37;;;;;;;1.50;1.13;;;;;;;;;;5092891;28;20455;-71
2022/06/25 07:41:04;;;;;;;6.10;1.40;;;;;;;;;;5092730;28;20475;-71
2022/06/25 07:43:31;;;;;;;2.23;1.30;;;;;;;;;;5092703;28;20493;-71
2022/06/25 07:45:59;;;;;;;1.50;1.10;;;;;;;;;;5093150;28;20454;-71
2022/06/25 07:48:26;;;;;;;4.33;1.30;;;;;;;;;;5092995;28;20455;-71
2022/06/25 07:53:40;;;;;;;2.57;1.53;;;;;;;;;;5079409;28;20435;-71
2022/06/25 07:56:07;;;;;;;1.73;1.50;;;;;;;;;;5072984;28;20944;-71
2022/06/25 07:58:35;;;;;;;5.47;2.63;;;;;;;;;;5072809;28;20475;-71
2022/06/25 08:01:02;;;;;;;6.53;1.43;;;;;;;;;;5072811;28;20471;-72
2022/06/25 08:03:29;;;;;;;1.80;1.10;;;;;;;;;;5072608;28;20491;-72
2022/06/25 08:05:57;;;;;;;2.00;1.07;;;;;;;;;;5072656;28;20448;-71
2022/06/25 08:08:24;;;;;;;2.00;1.70;;;;;;;;;;5072768;28;20448;-71
2022/06/25 08:10:52;;;;;;;1.70;1.30;;;;;;;;;;5072737;28;20472;-72
2022/06/25 08:13:20;;;;;;;2.90;2.60;;;;;;;;;;5072653;28;20933;-72
2022/06/25 08:15:47;;;;;;;8.20;1.77;;;;;;;;;;5072848;28;20458;-72
2022/06/25 08:18:14;;;;;;;1.83;1.10;;;;;;;;;;5072790;28;20451;-72
2022/06/25 08:20:41;;;;;;;2.37;1.57;;;;;;;;;;5073180;28;20476;-72
2022/06/25 08:23:08;;;;;;;1.50;1.10;;;;;;;;;;5072624;28;20480;-72
2022/06/25 08:25:35;;;;;;;2.80;2.17;;;;;;;;;;5072826;28;20946;-72
2022/06/25 08:28:04;;;;;;;2.23;1.40;;;;;;;;;;5072807;28;20812;-72
2022/06/25 08:30:31;;;;;;;1.60;1.30;;;;;;;;;;5073278;28;20448;-72
2022/06/25 08:32:58;;;;;;;2.47;1.20;;;;;;;;;;5076400;28;20489;-72
2022/06/25 08:35:25;;;;;;;1.60;1.10;;;;;;;;;;5076670;28;20822;-72
2022/06/25 08:37:53;;;;;;;4.00;3.57;;;;;;;;;;5076573;28;20452;-72
2022/06/25 08:40:20;;;;;;;5.13;1.50;;;;;;;;;;5076475;28;20432;-72
2022/06/25 08:42:48;;;;;;;2.80;1.40;;;;;;;;;;5076459;28;20491;-73
2022/06/25 08:45:17;;;;;;;2.13;1.30;;;;;;;;;;5076204;28;20456;-72
2022/06/25 08:47:45;;;;;;;2.00;1.37;;;;;;;;;;5076460;28;20451;-72
2022/06/25 08:50:14;;;;;;;4.83;1.50;;;;;;;;;;5076576;28;20454;-72
2022/06/25 08:52:43;;;;;;;5.47;3.17;;;;;;;;;;5076213;28;20478;-72
2022/06/25 08:55:11;;;;;;;2.80;1.50;;;;;;;;;;5076618;28;20431;-72
2022/06/25 08:57:39;;;;;;;2.37;1.90;;;;;;;;;;5076320;28;20478;-72
2022/06/25 09:00:07;;;;;;;1.80;1.50;;;;;;;;;;5076535;28;20534;-72
2022/06/25 09:02:39;;;;;;;1.30;1.10;;;;;;;;;;5075685;28;20492;-72
2022/06/25 09:05:06;;;;;;;2.67;1.67;;;;;;;;;;5076385;28;20446;-72
2022/06/25 09:07:33;;;;;;;4.70;1.33;;;;;;;;;;5075807;28;20455;-72
2022/06/25 09:10:00;;;;;;;1.50;1.23;;;;;;;;;;5076054;28;20823;-72
2022/06/25 09:12:28;;;;;;;1.40;1.10;;;;;;;;;;5076034;28;20480;-72
2022/06/25 09:14:55;;;;;;;4.23;1.20;;;;;;;;;;5075682;28;20451;-73
2022/06/25 09:17:22;;;;;;;1.57;1.17;;;;;;;;;;5075971;28;20925;-73
2022/06/25 09:19:51;;;;;;;1.60;1.10;;;;;;;;;;5075827;28;20454;-73
2022/06/25 09:22:19;;;;;;;2.57;1.07;;;;;;;;;;5075896;28;20495;-73
2022/06/25 09:24:48;;;;;;;2.07;1.13;;;;;;;;;;5075695;28;20459;-72
2022/06/25 09:27:18;;;;;;;1.70;1.10;;;;;;;;;;5075768;28;20448;-72
2022/06/25 09:29:48;;;;;;;1.83;1.37;;;;;;;;;;5075479;28;20459;-72
2022/06/25 09:32:15;;;;;;;1.40;1.10;;;;;;;;;;5075640;28;20521;-73
2022/06/25 09:34:43;;;;;;;1.87;1.40;;;;;;;;;;5075655;28;20455;-73
2022/06/25 09:37:19;;;;;;;6.70;1.83;;;;;;;;;;5075731;28;20452;-73
2022/06/25 09:39:46;;;;;;;2.03;1.50;;;;;;;;;;5075334;28;20431;-72
2022/06/25 09:42:27;;;;;;;1.50;1.40;;;;;;;;;;5074430;28;20487;-72
2022/06/25 09:45:01;;;;;;;2.30;2.10;;;;;;;;;;5075452;28;20451;-72
2022/06/25 09:47:28;;;;;;;5.20;2.13;;;;;;;;;;5075305;28;20924;-72
2022/06/25 09:50:05;;;;;;;2.13;1.50;;;;;;;;;;5075006;28;20455;-72
2022/06/25 09:52:35;;;;;;;1.60;1.20;;;;;;;;;;5075193;28;20467;-72
2022/06/25 09:55:02;;;;;;;2.40;1.30;;;;;;;;;;5075241;28;20436;-72
2022/06/25 09:57:29;;;;;;;2.63;1.40;;;;;;;;;;5075171;28;20448;-72
2022/06/25 09:59:57;;;;;;;1.60;1.10;;;;;;;;;;5075170;28;20451;-72
2022/06/25 10:02:27;;;;;;;2.67;1.60;;;;;;;;;;5074711;28;20484;-72
2022/06/25 10:04:58;;;;;;;3.00;2.40;;;;;;;;;;5075011;28;20501;-72
2022/06/25 10:07:59;;;;;;;2.00;1.60;;;;;;;;;;5074984;28;20813;-72
2022/06/25 10:10:17;;;;;;;1.60;1.50;;;;;;;;;;5074487;28;20929;-72
2022/06/25 10:12:45;;;;;;;2.47;1.10;;;;;;;;;;5074950;28;20431;-72
2022/06/25 10:15:13;;;;;;;1.70;1.17;;;;;;;;;;5074780;28;20454;-72
2022/06/25 10:17:40;;;;;;;1.60;1.20;;;;;;;;;;5074721;28;20967;-72
2022/06/25 10:20:08;;;;;;;4.40;1.10;;;;;;;;;;5074651;28;20811;-72
2022/06/25 10:22:37;;;;;;;1.70;1.13;;;;;;;;;;5074518;28;20483;-72
2022/06/25 10:25:04;;;;;;;2.60;1.30;;;;;;;;;;5074188;28;20466;-72
2022/06/25 10:27:40;;;;;;;1.70;1.20;;;;;;;;;;5074222;28;20448;-72
2022/06/25 10:30:07;;;;;;;1.40;1.07;;;;;;;;;;5074612;28;20841;-72
2022/06/25 10:32:42;;;;;;;3.33;1.70;;;;;;;;;;5074330;28;20832;-72
2022/06/25 10:35:09;;;;;;;2.83;1.83;;;;;;;;;;5074359;28;20432;-72
2022/06/25 10:37:51;;;;;;;1.70;1.00;;;;;;;;;;5074418;28;20448;-72
2022/06/25 10:40:19;;;;;;;2.80;1.30;;;;;;;;;;5073955;28;20948;-72
2022/06/25 10:43:03;;;;;;;1.40;1.10;;;;;;;;;;5074207;28;20488;-73
2022/06/25 10:45:52;;;;;;;1.43;1.00;;;;;;;;;;5074175;28;20439;-72
2022/06/25 10:48:19;;;;;;;1.90;1.50;;;;;;;;;;5073929;28;20439;-72
2022/06/25 10:50:50;;;;;;;4.60;1.10;;;;;;;;;;5074073;28;20521;-73
2022/06/25 10:53:18;;;;;;;1.90;1.20;;;;;;;;;;5073975;28;20806;-73
2022/06/25 10:56:06;;;;;;;2.90;1.60;;;;;;;;;;5073280;28;20431;-73
2022/06/25 10:58:43;;;;;;;3.30;1.60;;;;;;;;;;5070542;28;20460;-73
2022/06/25 11:01:19;;;;;;;3.33;1.30;;;;;;;;;;5073981;28;20475;-73
2022/06/25 11:03:46;;;;;;;1.77;1.20;;;;;;;;;;5073829;28;20830;-73
2022/06/25 11:06:20;;;;;;;2.30;1.20;;;;;;;;;;5073890;28;20456;-73
2022/06/25 11:08:48;;;;;;;1.70;1.30;;;;;;;;;;5073514;28;20447;-72
2022/06/25 11:11:23;;;;;;;2.80;1.30;;;;;;;;;;5073814;28;20555;-72
2022/06/25 11:13:52;;;;;;;1.70;1.30;;;;;;;;;;5073805;28;20490;-72
2022/06/25 11:16:20;;;;;;;2.40;1.37;;;;;;;;;;5073687;28;20451;-72
2022/06/25 11:18:48;;;;;;;1.83;1.50;;;;;;;;;;5073654;28;20509;-72
2022/06/25 11:21:26;;;;;;;1.87;1.70;;;;;;;;;;5073869;28;20494;-72
2022/06/25 11:23:53;;;;;;;1.70;1.37;;;;;;;;;;5073191;28;20498;-72
2022/06/25 11:29:06;;;;;;;4.73;1.20;;;;;;;;;;5073632;28;20407;-72
2022/06/25 11:31:35;;;;;;;1.60;1.10;;;;;;;;;;5073542;28;20483;-72
2022/06/25 11:34:03;;;;;;;1.50;1.10;;;;;;;;;;5073546;28;20951;-72
2022/06/25 11:36:34;;;;;;;3.50;1.07;;;;;;;;;;5073514;28;20447;-73
2022/06/25 11:39:01;;;;;;;3.20;1.20;;;;;;;;;;5073254;28;20438;-73
2022/06/25 11:41:30;;;;;;;1.70;1.50;;;;;;;;;;5073357;28;21050;-73
2022/06/25 11:43:57;;;;;;;2.10;1.07;;;;;;;;;;5073316;28;20487;-73
2022/06/25 11:46:26;;;;;;;1.90;1.20;;;;;;;;;;5073386;28;20454;-73
2022/06/25 11:48:53;;;;;;;2.07;1.30;;;;;;;;;;5073373;28;20518;-73
2022/06/25 11:51:24;;;;;;;2.00;1.50;;;;;;;;;;5072974;28;20476;-73
2022/06/25 11:53:52;;;;;;;1.77;1.10;;;;;;;;;;5073229;28;20489;-74
2022/06/25 11:56:19;;;;;;;1.83;1.30;;;;;;;;;;5073377;28;20890;-74
2022/06/25 11:58:47;;;;;;;1.40;1.10;;;;;;;;;;5073250;28;20455;-74
2022/06/25 12:01:14;;;;;;;1.83;1.00;;;;;;;;;;5073175;28;20482;-73
2022/06/25 12:03:42;;;;;;;4.03;1.20;;;;;;;;;;5073054;28;20483;-73
2022/06/25 12:06:11;;;;;;;1.63;1.23;;;;;;;;;;5074935;28;20456;-73
2022/06/25 12:08:38;;;;;;;1.60;1.20;;;;;;;;;;5077194;28;20828;-73
2022/06/25 12:11:05;;;;;;;1.97;1.20;;;;;;;;;;5077304;28;20479;-73
2022/06/25 12:13:33;;;;;;;1.60;1.20;;;;;;;;;;5077161;28;20933;-73
2022/06/25 12:16:01;;;;;;;1.83;1.30;;;;;;;;;;5076830;28;20546;-73
2022/06/25 12:18:35;;;;;;;1.60;1.10;;;;;;;;;;5077024;28;20448;-73
2022/06/25 12:21:04;;;;;;;1.97;1.13;;;;;;;;;;5076800;28;21027;-73
2022/06/25 12:23:31;;;;;;;1.60;1.30;;;;;;;;;;5076621;28;20570;-73
2022/06/25 12:25:58;;;;;;;2.27;1.10;;;;;;;;;;5077192;28;20436;-73
2022/06/25 12:28:35;;;;;;;2.70;1.30;;;;;;;;;;5076872;28;20971;-73
2022/06/25 12:31:10;;;;;;;2.30;1.30;;;;;;;;;;5076773;28;20470;-73
2022/06/25 12:33:37;;;;;;;3.80;1.10;;;;;;;;;;5076694;28;20546;-73
2022/06/25 12:36:16;;;;;;;1.80;1.10;;;;;;;;;;5076362;28;20443;-73
2022/06/25 12:38:43;;;;;;;3.87;1.13;;;;;;;;;;5076389;28;20432;-73
2022/06/25 12:41:10;;;;;;;1.90;1.17;;;;;;;;;;5076466;28;20840;-73
2022/06/25 12:43:45;;;;;;;2.77;2.03;;;;;;;;;;5076539;28;20487;-73
2022/06/25 12:46:12;;;;;;;2.30;2.00;;;;;;;;;;5076583;28;20488;-73
2022/06/25 12:48:39;;;;;;;1.87;1.37;;;;;;;;;;5076499;28;20817;-73
2022/06/25 12:51:11;;;;;;;1.80;1.40;;;;;;;;;;5076082;28;20542;-73
2022/06/25 12:53:38;;;;;;;1.40;1.07;;;;;;;;;;5076004;28;20458;-73
2022/06/25 12:56:07;;;;;;;2.90;1.40;;;;;;;;;;5076355;28;20489;-73
2022/06/25 12:58:35;;;;;;;2.60;2.10;;;;;;;;;;5076230;28;20504;-73
2022/06/25 13:01:02;;;;;;;2.73;1.43;;;;;;;;;;5076235;28;20467;-73
2022/06/25 13:03:29;;;;;;;1.50;1.10;;;;;;;;;;5076077;28;20495;-73
2022/06/25 13:05:56;;;;;;;1.97;1.13;;;;;;;;;;5076118;28;20822;-73
2022/06/25 13:08:25;;;;;;;2.83;1.30;;;;;;;;;;5076095;28;20447;-73
2022/06/25 13:10:52;;;;;;;1.70;1.30;;;;;;;;;;5076125;28;20840;-73
2022/06/25 13:13:19;;;;;;;2.27;1.53;;;;;;;;;;5076004;28;20450;-73
2022/06/25 13:15:47;;;;;;;1.60;1.10;;;;;;;;;;5075620;28;20463;-73
2022/06/25 13:18:14;;;;;;;1.63;1.30;;;;;;;;;;5074868;28;20831;-73
2022/06/25 13:20:41;;;;;;;2.00;1.30;;;;;;;;;;5075853;28;20479;-73
2022/06/25 13:23:09;;;;;;;1.80;1.20;;;;;;;;;;5076104;28;20479;-73
2022/06/25 13:25:38;;;;;;;1.50;1.30;;;;;;;;;;5075310;28;20463;-74
2022/06/25 13:28:05;;;;;;;1.40;1.03;;;;;;;;;;5076031;28;20455;-73
2022/06/25 13:30:32;;;;;;;7.53;6.70;;;;;;;;;;5075358;28;20459;-73
2022/06/25 13:32:59;;;;;;;1.50;1.10;;;;;;;;;;5075647;28;20815;-73
2022/06/25 13:35:27;;;;;;;3.50;2.40;;;;;;;;;;5075636;28;20462;-73
2022/06/25 13:37:54;;;;;;;1.50;1.10;;;;;;;;;;5075298;28;20459;-73
2022/06/25 13:40:21;;;;;;;1.70;1.20;;;;;;;;;;5075588;28;20449;-73
2022/06/25 13:42:49;;;;;;;3.00;1.30;;;;;;;;;;5075670;28;20949;-73
2022/06/25 13:45:16;;;;;;;1.40;1.10;;;;;;;;;;5075334;28;20522;-73
2022/06/25 13:47:44;;;;;;;1.70;1.10;;;;;;;;;;5075391;28;20447;-73
2022/06/25 13:50:11;;;;;;;1.80;1.40;;;;;;;;;;5075017;28;20456;-73
2022/06/25 13:52:38;;;;;;;2.33;1.20;;;;;;;;;;5074825;28;20475;-73
2022/06/25 13:55:06;;;;;;;1.80;1.27;;;;;;;;;;5075222;28;20436;-73
2022/06/25 13:57:33;;;;;;;1.70;1.37;;;;;;;;;;5075318;28;20452;-73
2022/06/25 14:00:01;;;;;;;1.50;1.27;;;;;;;;;;5075215;28;20814;-73
2022/06/25 14:02:28;;;;;;;1.63;1.20;;;;;;;;;;5074716;28;20479;-73
2022/06/25 14:04:56;;;;;;;2.30;1.63;;;;;;;;;;5074917;28;20507;-73
2022/06/25 14:07:23;;;;;;;2.77;1.57;;;;;;;;;;5074911;28;20459;-73
2022/06/25 14:09:50;;;;;;;1.50;1.10;;;;;;;;;;5075216;28;20925;-73
2022/06/25 14:12:17;;;;;;;13.23;2.23;;;;;;;;;;5074872;28;20472;-73
2022/06/25 14:14:44;;;;;;;3.00;1.30;;;;;;;;;;5075094;28;20939;-73
2022/06/25 14:17:12;;;;;;;1.83;1.37;;;;;;;;;;5074807;28;20450;-73
2022/06/25 14:19:39;;;;;;;1.70;1.27;;;;;;;;;;5074373;28;20455;-73
2022/06/25 14:22:07;;;;;;;2.17;1.30;;;;;;;;;;5074629;28;20973;-73
2022/06/25 14:27:19;;;;;;;1.60;1.30;;;;;;;;;;5053500;28;20490;-73
2022/06/25 14:29:46;;;;;;;3.13;1.10;;;;;;;;;;5074379;28;20538;-73
2022/06/25 14:32:14;;;;;;;2.70;1.37;;;;;;;;;;5074058;28;20483;-73
2022/06/25 14:34:42;;;;;;;2.43;1.40;;;;;;;;;;5074421;28;20530;-75
2022/06/25 14:42:40;;;;;;;2.73;1.30;;;;;;;;;;5073945;28;20458;-75
2022/06/25 14:45:07;;;;;;;3.83;1.30;;;;;;;;;;5074004;28;20483;-76
2022/06/25 14:47:36;;;;;;;1.70;1.40;;;;;;;;;;5073987;28;20452;-76
2022/06/25 14:50:04;;;;;;;2.10;1.60;;;;;;;;;;5073877;28;20436;-76
2022/06/25 14:52:31;;;;;;;1.87;1.30;;;;;;;;;;5073547;28;20471;-72
2022/06/25 14:54:58;;;;;;;1.40;1.10;;;;;;;;;;5070853;28;20995;-73
2022/06/25 14:57:25;;;;;;;2.13;1.30;;;;;;;;;;5092351;28;20458;-73
2022/06/25 14:59:52;;;;;;;2.70;1.40;;;;;;;;;;5092211;28;20454;-72
2022/06/25 15:02:19;;;;;;;1.57;1.47;;;;;;;;;;5092700;28;20838;-73
2022/06/25 15:04:48;;;;;;;1.80;1.43;;;;;;;;;;5093270;28;20466;-76
2022/06/25 15:07:15;;;;;;;2.00;1.40;;;;;;;;;;5094073;28;20458;-76
2022/06/25 15:09:42;;;;;;;2.53;1.00;;;;;;;;;;5093520;28;20939;-73